KLM702 SAEZ-EHAM
Flight info
| Callsign | KLM702 |
|---|---|
| Flight time | N/A |
| Altitude | 29000 |
| Route | DORVO1E DORVO UN857 OGRUN DCT NIGBI UZ121 PENSO UZ5 MEVIK/N0501F310 UZ5 SEKPO DCT KADAG UZ2 SLI DCT MAVKO/N0499F330 DCT GOGSO DCT GARPO/M083F330 DCT TEGTO DCT SORAD/M083F350 DCT 35N022W 40N019W DCT GONAN/M083F370 DCT TAMEL DCT EVBAK DCT GAPLI/N0474F370 DCT GAJIT DCT ENHAQ DCT REDFA |
| Aircraft | B772/H-SDE2E3FGHIJ5LORVWXY/LB1D1 |
Departure
| Time | N/A |
|---|---|
| Airport | Ezeiza International Airport - Ministro Pistarini (SAEZ) |
Arrival
| Time | 2026-05-08 07:13 |
|---|---|
| Airport | Amsterdam Airport Schiphol (EHAM) |
| Time | Latitude | Longitude | Altitude | Speed | Heading |
|---|---|---|---|---|---|
| 2026-05-08 04:58 | 42.73836 | -16.38856 | 36794 ft | 506 kts | 37° |
| 2026-05-08 04:59 | 42.79487 | -16.33164 | 36788 ft | 505 kts | 37° |
| 2026-05-08 04:59 | 42.85135 | -16.27462 | 36800 ft | 505 kts | 38° |
| 2026-05-08 05:00 | 42.90623 | -16.21908 | 36801 ft | 505 kts | 38° |
| 2026-05-08 05:00 | 42.96274 | -16.16176 | 36806 ft | 505 kts | 38° |
| 2026-05-08 05:01 | 43.01914 | -16.10443 | 36806 ft | 505 kts | 38° |
| 2026-05-08 05:01 | 43.07516 | -16.04733 | 36808 ft | 505 kts | 38° |
| 2026-05-08 05:02 | 43.13146 | -15.98983 | 36803 ft | 505 kts | 38° |
| 2026-05-08 05:02 | 43.18774 | -15.93222 | 36812 ft | 505 kts | 38° |
| 2026-05-08 05:03 | 43.24399 | -15.87449 | 36817 ft | 505 kts | 38° |
| 2026-05-08 05:03 | 43.30022 | -15.81665 | 36816 ft | 505 kts | 38° |
| 2026-05-08 05:04 | 43.35648 | -15.75863 | 36818 ft | 506 kts | 38° |
| 2026-05-08 05:04 | 43.41271 | -15.70052 | 36823 ft | 506 kts | 38° |
| 2026-05-08 05:05 | 43.46903 | -15.64217 | 36819 ft | 506 kts | 38° |
| 2026-05-08 05:05 | 43.52526 | -15.58379 | 36823 ft | 506 kts | 39° |
| 2026-05-08 05:06 | 43.58148 | -15.52526 | 36830 ft | 506 kts | 39° |
| 2026-05-08 05:06 | 43.63732 | -15.46700 | 36830 ft | 506 kts | 39° |
| 2026-05-08 05:07 | 43.69347 | -15.40827 | 36834 ft | 506 kts | 39° |
| 2026-05-08 05:07 | 43.74960 | -15.34942 | 36832 ft | 506 kts | 39° |
| 2026-05-08 05:08 | 43.80572 | -15.29043 | 36835 ft | 506 kts | 39° |
| 2026-05-08 05:08 | 43.86184 | -15.23130 | 36839 ft | 506 kts | 39° |
| 2026-05-08 05:09 | 43.91786 | -15.17214 | 36838 ft | 506 kts | 39° |
| 2026-05-08 05:09 | 43.97384 | -15.11286 | 36838 ft | 506 kts | 39° |
| 2026-05-08 05:10 | 44.05732 | -15.02421 | 36840 ft | 506 kts | 39° |
| 2026-05-08 05:11 | 44.11315 | -14.96475 | 36828 ft | 506 kts | 39° |
| 2026-05-08 05:11 | 44.16897 | -14.90515 | 36841 ft | 505 kts | 40° |
| 2026-05-08 05:12 | 44.22477 | -14.84541 | 36846 ft | 506 kts | 40° |
| 2026-05-08 05:12 | 44.28056 | -14.78555 | 36846 ft | 506 kts | 40° |
| 2026-05-08 05:13 | 44.33641 | -14.72548 | 36845 ft | 507 kts | 40° |
| 2026-05-08 05:13 | 44.39221 | -14.66531 | 36847 ft | 507 kts | 40° |
| 2026-05-08 05:14 | 44.44795 | -14.60505 | 36854 ft | 507 kts | 40° |
| 2026-05-08 05:14 | 44.50380 | -14.54453 | 36852 ft | 507 kts | 40° |
| 2026-05-08 05:15 | 44.55963 | -14.48387 | 36853 ft | 508 kts | 40° |
| 2026-05-08 05:15 | 44.61544 | -14.42309 | 36850 ft | 508 kts | 40° |
| 2026-05-08 05:16 | 44.67088 | -14.36255 | 36864 ft | 508 kts | 40° |
| 2026-05-08 05:16 | 44.72664 | -14.30152 | 36859 ft | 508 kts | 40° |
| 2026-05-08 05:17 | 44.78247 | -14.24025 | 36862 ft | 508 kts | 40° |
| 2026-05-08 05:17 | 44.83816 | -14.17899 | 36846 ft | 508 kts | 40° |
| 2026-05-08 05:18 | 44.89381 | -14.11760 | 36868 ft | 508 kts | 41° |
| 2026-05-08 05:18 | 44.94945 | -14.05606 | 36867 ft | 508 kts | 41° |
| 2026-05-08 05:19 | 45.00545 | -13.99498 | 36871 ft | 509 kts | 37° |
| 2026-05-08 05:19 | 45.06511 | -13.94190 | 36875 ft | 511 kts | 33° |
| 2026-05-08 05:20 | 45.12610 | -13.88998 | 36869 ft | 511 kts | 33° |
| 2026-05-08 05:20 | 45.18690 | -13.83773 | 36874 ft | 512 kts | 33° |
| 2026-05-08 05:21 | 45.24762 | -13.78488 | 36870 ft | 512 kts | 34° |
| 2026-05-08 05:21 | 45.30830 | -13.73174 | 36874 ft | 512 kts | 34° |
| 2026-05-08 05:22 | 45.36902 | -13.67841 | 36877 ft | 513 kts | 34° |
| 2026-05-08 05:22 | 45.42988 | -13.62485 | 36980 ft | 515 kts | 34° |
| 2026-05-08 05:22 | 45.46034 | -13.59801 | 37248 ft | 513 kts | 33° |
| 2026-05-08 05:23 | 45.49058 | -13.57133 | 37541 ft | 510 kts | 33° |
| 2026-05-08 05:23 | 45.52074 | -13.54469 | 37797 ft | 509 kts | 33° |
| 2026-05-08 05:23 | 45.55039 | -13.51846 | 38017 ft | 508 kts | 33° |
| 2026-05-08 05:23 | 45.58081 | -13.49152 | 38211 ft | 508 kts | 33° |
| 2026-05-08 05:24 | 45.61044 | -13.46523 | 38409 ft | 507 kts | 33° |
| 2026-05-08 05:24 | 45.64038 | -13.43864 | 38597 ft | 506 kts | 33° |
| 2026-05-08 05:24 | 45.67024 | -13.41209 | 38736 ft | 506 kts | 33° |
| 2026-05-08 05:25 | 45.73012 | -13.35873 | 38832 ft | 507 kts | 33° |
| 2026-05-08 05:25 | 45.79013 | -13.30513 | 38878 ft | 508 kts | 33° |
| 2026-05-08 05:26 | 45.85018 | -13.25136 | 38889 ft | 509 kts | 33° |
| 2026-05-08 05:26 | 45.91028 | -13.19740 | 38889 ft | 510 kts | 33° |
| 2026-05-08 05:27 | 45.97039 | -13.14330 | 38878 ft | 510 kts | 33° |
| 2026-05-08 05:27 | 46.03040 | -13.08914 | 38882 ft | 509 kts | 33° |
| 2026-05-08 05:28 | 46.09031 | -13.03493 | 38890 ft | 508 kts | 33° |
| 2026-05-08 05:28 | 46.15013 | -12.98067 | 38890 ft | 507 kts | 33° |
| 2026-05-08 05:29 | 46.20941 | -12.92675 | 38890 ft | 507 kts | 33° |
| 2026-05-08 05:29 | 46.26905 | -12.87236 | 38881 ft | 507 kts | 33° |
| 2026-05-08 05:30 | 46.32868 | -12.81785 | 38891 ft | 507 kts | 33° |
| 2026-05-08 05:30 | 46.38832 | -12.76318 | 38898 ft | 507 kts | 33° |
| 2026-05-08 05:31 | 46.44792 | -12.70841 | 38897 ft | 507 kts | 33° |
| 2026-05-08 05:31 | 46.50754 | -12.65346 | 38897 ft | 508 kts | 33° |
| 2026-05-08 05:32 | 46.56726 | -12.59829 | 38902 ft | 509 kts | 33° |
| 2026-05-08 05:32 | 46.62704 | -12.54291 | 38902 ft | 510 kts | 33° |
| 2026-05-08 05:33 | 46.68680 | -12.48740 | 38899 ft | 510 kts | 33° |
| 2026-05-08 05:33 | 46.74665 | -12.43166 | 38903 ft | 511 kts | 33° |
| 2026-05-08 05:34 | 46.80651 | -12.37576 | 38906 ft | 511 kts | 33° |
| 2026-05-08 05:34 | 46.86645 | -12.31964 | 38893 ft | 511 kts | 33° |
| 2026-05-08 05:35 | 46.92592 | -12.26381 | 38902 ft | 511 kts | 33° |
| 2026-05-08 05:35 | 46.98568 | -12.20755 | 38908 ft | 511 kts | 33° |
| 2026-05-08 05:36 | 47.04553 | -12.15107 | 38907 ft | 512 kts | 33° |
| 2026-05-08 05:36 | 47.10544 | -12.09436 | 38912 ft | 512 kts | 33° |
| 2026-05-08 05:37 | 47.16523 | -12.03762 | 38912 ft | 512 kts | 33° |
| 2026-05-08 05:37 | 47.22504 | -11.98070 | 38913 ft | 512 kts | 33° |
| 2026-05-08 05:38 | 47.28486 | -11.92362 | 38919 ft | 512 kts | 33° |
| 2026-05-08 05:38 | 47.34467 | -11.86639 | 38917 ft | 512 kts | 33° |
| 2026-05-08 05:39 | 47.40437 | -11.80911 | 38935 ft | 512 kts | 33° |
| 2026-05-08 05:39 | 47.46415 | -11.75160 | 38925 ft | 512 kts | 33° |
| 2026-05-08 05:40 | 47.52345 | -11.69438 | 38917 ft | 512 kts | 33° |
| 2026-05-08 05:40 | 47.58317 | -11.63662 | 38923 ft | 512 kts | 33° |
| 2026-05-08 05:41 | 47.64279 | -11.57878 | 38934 ft | 512 kts | 33° |
| 2026-05-08 05:41 | 47.70248 | -11.52071 | 38928 ft | 513 kts | 33° |
| 2026-05-08 05:42 | 47.76214 | -11.46252 | 38929 ft | 513 kts | 33° |
| 2026-05-08 05:42 | 47.82170 | -11.40425 | 38925 ft | 512 kts | 33° |
| 2026-05-08 05:43 | 47.87124 | -11.35566 | 38931 ft | 512 kts | 33° |
| 2026-05-08 05:43 | 47.93075 | -11.29715 | 38938 ft | 513 kts | 33° |
| 2026-05-08 05:44 | 47.99027 | -11.23847 | 38936 ft | 513 kts | 33° |
| 2026-05-08 05:44 | 48.04977 | -11.17964 | 38935 ft | 513 kts | 33° |
| 2026-05-08 05:45 | 48.10927 | -11.12064 | 38924 ft | 513 kts | 33° |
| 2026-05-08 05:45 | 48.16873 | -11.06151 | 38942 ft | 513 kts | 33° |
| 2026-05-08 05:46 | 48.22813 | -11.00228 | 38947 ft | 513 kts | 33° |
| 2026-05-08 05:46 | 48.28715 | -10.94326 | 38946 ft | 513 kts | 33° |
| 2026-05-08 05:47 | 48.34656 | -10.88368 | 38951 ft | 513 kts | 33° |
| 2026-05-08 05:47 | 48.40593 | -10.82396 | 38949 ft | 513 kts | 33° |
| 2026-05-08 05:48 | 48.46519 | -10.76419 | 38948 ft | 512 kts | 33° |
| 2026-05-08 05:48 | 48.52438 | -10.70432 | 38951 ft | 512 kts | 33° |
| 2026-05-08 05:49 | 48.58357 | -10.64428 | 38951 ft | 512 kts | 33° |
| 2026-05-08 05:49 | 48.64267 | -10.58415 | 38956 ft | 513 kts | 33° |
| 2026-05-08 05:50 | 48.70149 | -10.52301 | 38959 ft | 513 kts | 38° |
| 2026-05-08 05:50 | 48.75374 | -10.45033 | 38953 ft | 513 kts | 49° |
| 2026-05-08 05:51 | 48.79883 | -10.36643 | 38961 ft | 513 kts | 52° |
| 2026-05-08 05:51 | 48.84308 | -10.28129 | 38966 ft | 514 kts | 52° |
| 2026-05-08 05:52 | 48.88759 | -10.19619 | 38968 ft | 515 kts | 51° |
| 2026-05-08 05:52 | 48.93239 | -10.11104 | 38963 ft | 516 kts | 51° |
| 2026-05-08 05:53 | 48.97718 | -10.02586 | 38963 ft | 516 kts | 51° |
| 2026-05-08 05:53 | 49.02195 | -9.94041 | 38971 ft | 516 kts | 51° |
| 2026-05-08 05:54 | 49.06663 | -9.85482 | 38967 ft | 516 kts | 51° |
| 2026-05-08 05:54 | 49.11129 | -9.76895 | 38987 ft | 516 kts | 51° |
| 2026-05-08 05:55 | 49.15582 | -9.68307 | 38977 ft | 516 kts | 51° |
| 2026-05-08 05:55 | 49.20028 | -9.59705 | 38974 ft | 515 kts | 51° |
| 2026-05-08 05:56 | 49.24427 | -9.51166 | 38974 ft | 514 kts | 51° |
| 2026-05-08 05:56 | 49.28844 | -9.42565 | 38980 ft | 513 kts | 52° |
| 2026-05-08 05:57 | 49.33250 | -9.33956 | 38977 ft | 513 kts | 52° |
| 2026-05-08 05:57 | 49.37651 | -9.25331 | 38993 ft | 513 kts | 52° |
| 2026-05-08 05:58 | 49.42035 | -9.16708 | 38982 ft | 512 kts | 52° |
| 2026-05-08 05:58 | 49.46419 | -9.08062 | 38980 ft | 512 kts | 52° |
| 2026-05-08 05:59 | 49.50784 | -8.99421 | 38979 ft | 511 kts | 52° |
| 2026-05-08 05:59 | 49.55136 | -8.90779 | 38984 ft | 510 kts | 52° |
| 2026-05-08 06:00 | 49.59474 | -8.82136 | 38986 ft | 509 kts | 52° |
| 2026-05-08 06:00 | 49.63802 | -8.73487 | 38988 ft | 509 kts | 52° |
| 2026-05-08 06:01 | 49.68115 | -8.64838 | 39001 ft | 509 kts | 52° |
| 2026-05-08 06:01 | 49.72423 | -8.56172 | 38991 ft | 508 kts | 52° |
| 2026-05-08 06:02 | 49.76697 | -8.47544 | 38995 ft | 508 kts | 52° |
| 2026-05-08 06:02 | 49.80989 | -8.38852 | 38994 ft | 508 kts | 52° |
| 2026-05-08 06:03 | 49.85276 | -8.30142 | 38994 ft | 508 kts | 52° |
| 2026-05-08 06:03 | 49.89552 | -8.21425 | 38993 ft | 508 kts | 52° |
| 2026-05-08 06:04 | 49.93828 | -8.12679 | 38997 ft | 509 kts | 52° |
| 2026-05-08 06:04 | 49.98080 | -8.03876 | 38998 ft | 510 kts | 56° |
| 2026-05-08 06:05 | 50.01567 | -7.94285 | 38997 ft | 510 kts | 67° |
| 2026-05-08 06:05 | 50.04183 | -7.84027 | 39004 ft | 511 kts | 69° |
| 2026-05-08 06:06 | 50.06724 | -7.73759 | 38998 ft | 512 kts | 69° |
| 2026-05-08 06:06 | 50.09304 | -7.63431 | 39007 ft | 512 kts | 69° |
| 2026-05-08 06:07 | 50.11905 | -7.53091 | 39008 ft | 513 kts | 69° |
| 2026-05-08 06:07 | 50.14505 | -7.42744 | 39003 ft | 513 kts | 69° |
| 2026-05-08 06:08 | 50.17096 | -7.32377 | 38997 ft | 513 kts | 69° |
| 2026-05-08 06:08 | 50.19677 | -7.21995 | 39021 ft | 512 kts | 69° |
| 2026-05-08 06:09 | 50.22246 | -7.11608 | 39012 ft | 513 kts | 69° |
| 2026-05-08 06:09 | 50.24809 | -7.01199 | 39011 ft | 513 kts | 69° |
| 2026-05-08 06:10 | 50.27349 | -6.90835 | 39003 ft | 514 kts | 69° |
| 2026-05-08 06:10 | 50.29894 | -6.80397 | 39006 ft | 514 kts | 69° |
| 2026-05-08 06:11 | 50.32433 | -6.69942 | 39011 ft | 514 kts | 69° |
| 2026-05-08 06:11 | 50.34960 | -6.59481 | 39009 ft | 514 kts | 69° |
| 2026-05-08 06:12 | 50.37477 | -6.49014 | 39007 ft | 514 kts | 69° |
| 2026-05-08 06:12 | 50.39987 | -6.38524 | 39004 ft | 513 kts | 69° |
| 2026-05-08 06:13 | 50.42485 | -6.28033 | 39005 ft | 513 kts | 69° |
| 2026-05-08 06:13 | 50.44972 | -6.17540 | 39010 ft | 513 kts | 69° |
| 2026-05-08 06:14 | 50.47450 | -6.07033 | 39013 ft | 513 kts | 70° |
| 2026-05-08 06:14 | 50.49905 | -5.96572 | 39016 ft | 514 kts | 69° |
| 2026-05-08 06:15 | 50.52366 | -5.86035 | 39011 ft | 514 kts | 70° |
| 2026-05-08 06:15 | 50.54825 | -5.75457 | 39009 ft | 515 kts | 70° |
| 2026-05-08 06:16 | 50.57273 | -5.64868 | 39009 ft | 515 kts | 70° |
| 2026-05-08 06:16 | 50.59714 | -5.54262 | 39006 ft | 515 kts | 70° |
| 2026-05-08 06:17 | 50.63355 | -5.38341 | 39009 ft | 515 kts | 70° |
| 2026-05-08 06:17 | 50.65774 | -5.27696 | 39008 ft | 516 kts | 70° |
| 2026-05-08 06:18 | 50.68181 | -5.17052 | 39012 ft | 516 kts | 70° |
| 2026-05-08 06:18 | 50.70579 | -5.06392 | 39009 ft | 516 kts | 70° |
| 2026-05-08 06:19 | 50.72954 | -4.95782 | 39009 ft | 516 kts | 70° |
| 2026-05-08 06:19 | 50.75331 | -4.85108 | 39012 ft | 515 kts | 70° |
| 2026-05-08 06:20 | 50.77699 | -4.74419 | 39012 ft | 515 kts | 70° |
| 2026-05-08 06:20 | 50.80062 | -4.63694 | 39015 ft | 516 kts | 70° |
| 2026-05-08 06:21 | 50.82414 | -4.52971 | 39016 ft | 516 kts | 70° |
| 2026-05-08 06:21 | 50.84742 | -4.42300 | 39016 ft | 517 kts | 70° |
| 2026-05-08 06:22 | 50.87079 | -4.31532 | 39022 ft | 517 kts | 70° |
| 2026-05-08 06:22 | 50.89405 | -4.20752 | 39026 ft | 517 kts | 70° |
| 2026-05-08 06:23 | 50.91725 | -4.09949 | 39021 ft | 517 kts | 70° |
| 2026-05-08 06:23 | 50.94033 | -3.99143 | 39022 ft | 517 kts | 70° |
| 2026-05-08 06:24 | 50.96332 | -3.88326 | 39027 ft | 518 kts | 70° |
| 2026-05-08 06:24 | 50.98622 | -3.77486 | 39025 ft | 518 kts | 71° |
| 2026-05-08 06:25 | 51.00884 | -3.66724 | 39024 ft | 517 kts | 70° |
| 2026-05-08 06:25 | 51.03149 | -3.55890 | 39028 ft | 517 kts | 70° |
| 2026-05-08 06:26 | 51.05405 | -3.45045 | 39028 ft | 516 kts | 71° |
| 2026-05-08 06:26 | 51.07648 | -3.34201 | 39027 ft | 516 kts | 71° |
| 2026-05-08 06:27 | 51.09876 | -3.23365 | 39033 ft | 515 kts | 71° |
| 2026-05-08 06:27 | 51.12091 | -3.12540 | 39029 ft | 514 kts | 71° |
| 2026-05-08 06:28 | 51.14291 | -3.01726 | 39032 ft | 513 kts | 71° |
| 2026-05-08 06:28 | 51.16477 | -2.90922 | 39032 ft | 512 kts | 71° |
| 2026-05-08 06:29 | 51.18649 | -2.80130 | 39026 ft | 511 kts | 71° |
| 2026-05-08 06:29 | 51.20806 | -2.69350 | 39026 ft | 510 kts | 71° |
| 2026-05-08 06:30 | 51.22951 | -2.58572 | 39027 ft | 509 kts | 71° |
| 2026-05-08 06:30 | 51.25083 | -2.47802 | 39031 ft | 509 kts | 71° |
| 2026-05-08 06:31 | 51.26846 | -2.38847 | 39039 ft | 508 kts | 71° |
| 2026-05-08 06:31 | 51.29299 | -2.26317 | 39048 ft | 508 kts | 72° |
| 2026-05-08 06:32 | 51.31059 | -2.17282 | 39049 ft | 508 kts | 72° |
| 2026-05-08 06:32 | 51.33136 | -2.06563 | 39066 ft | 508 kts | 72° |
| 2026-05-08 06:33 | 51.35253 | -1.95782 | 39054 ft | 508 kts | 70° |
| 2026-05-08 06:33 | 51.37662 | -1.85143 | 39055 ft | 508 kts | 69° |
| 2026-05-08 06:34 | 51.40063 | -1.74494 | 39061 ft | 508 kts | 70° |
| 2026-05-08 06:34 | 51.42279 | -1.63739 | 39059 ft | 509 kts | 72° |
| 2026-05-08 06:35 | 51.44280 | -1.52837 | 39054 ft | 510 kts | 73° |
| 2026-05-08 06:35 | 51.46262 | -1.41911 | 39054 ft | 510 kts | 73° |
| 2026-05-08 06:36 | 51.48270 | -1.30990 | 39053 ft | 510 kts | 73° |
| 2026-05-08 06:36 | 51.50286 | -1.20071 | 39075 ft | 510 kts | 73° |
| 2026-05-08 06:37 | 51.52283 | -1.09207 | 39079 ft | 511 kts | 73° |
| 2026-05-08 06:37 | 51.54294 | -0.98190 | 39073 ft | 511 kts | 73° |
| 2026-05-08 06:38 | 51.56278 | -0.87245 | 39068 ft | 510 kts | 73° |
| 2026-05-08 06:38 | 51.58241 | -0.76350 | 39083 ft | 510 kts | 73° |
| 2026-05-08 06:39 | 51.60207 | -0.65372 | 39077 ft | 511 kts | 73° |
| 2026-05-08 06:39 | 51.62162 | -0.54394 | 39076 ft | 511 kts | 73° |
| 2026-05-08 06:40 | 51.64108 | -0.43393 | 39076 ft | 511 kts | 73° |
| 2026-05-08 06:40 | 51.66043 | -0.32391 | 39105 ft | 511 kts | 74° |
| 2026-05-08 06:41 | 51.67969 | -0.21368 | 39101 ft | 511 kts | 74° |
| 2026-05-08 06:41 | 51.69884 | -0.10345 | 39102 ft | 511 kts | 74° |
| 2026-05-08 06:42 | 51.71789 | 0.00693 | 39089 ft | 511 kts | 74° |
| 2026-05-08 06:42 | 51.73682 | 0.11730 | 39097 ft | 511 kts | 74° |
| 2026-05-08 06:43 | 51.75566 | 0.22784 | 39103 ft | 511 kts | 74° |
| 2026-05-08 06:43 | 51.77441 | 0.33852 | 39102 ft | 511 kts | 75° |
| 2026-05-08 06:44 | 51.79294 | 0.44866 | 39102 ft | 511 kts | 75° |
| 2026-05-08 06:44 | 51.81147 | 0.55947 | 39109 ft | 511 kts | 75° |
| 2026-05-08 06:45 | 51.82990 | 0.67041 | 39104 ft | 511 kts | 75° |
| 2026-05-08 06:45 | 51.84824 | 0.78154 | 39107 ft | 511 kts | 75° |
| 2026-05-08 06:46 | 51.86650 | 0.89287 | 39109 ft | 511 kts | 75° |
| 2026-05-08 06:46 | 51.88462 | 1.00412 | 39103 ft | 511 kts | 75° |
| 2026-05-08 06:47 | 51.90265 | 1.11552 | 39115 ft | 511 kts | 75° |
| 2026-05-08 06:47 | 51.92057 | 1.22699 | 39115 ft | 511 kts | 75° |
| 2026-05-08 06:48 | 51.92949 | 1.28273 | 38630 ft | 512 kts | 75° |
| 2026-05-08 06:48 | 51.93837 | 1.33847 | 37852 ft | 510 kts | 76° |
| 2026-05-08 06:48 | 51.94719 | 1.39395 | 37121 ft | 506 kts | 76° |
| 2026-05-08 06:48 | 51.95591 | 1.44902 | 36379 ft | 503 kts | 76° |
| 2026-05-08 06:49 | 51.96456 | 1.50380 | 35608 ft | 501 kts | 76° |
| 2026-05-08 06:49 | 51.97318 | 1.55861 | 34746 ft | 501 kts | 76° |
| 2026-05-08 06:49 | 51.98166 | 1.61273 | 33805 ft | 502 kts | 77° |
| 2026-05-08 06:49 | 51.99025 | 1.66768 | 32780 ft | 502 kts | 77° |
| 2026-05-08 06:50 | 51.99872 | 1.72211 | 32167 ft | 493 kts | 77° |
| 2026-05-08 06:50 | 52.00706 | 1.77578 | 31538 ft | 487 kts | 77° |
| 2026-05-08 06:50 | 52.01525 | 1.82871 | 30955 ft | 480 kts | 77° |
| 2026-05-08 06:50 | 52.02331 | 1.88097 | 30377 ft | 475 kts | 77° |
| 2026-05-08 06:51 | 52.03125 | 1.93265 | 29752 ft | 469 kts | 77° |
| 2026-05-08 06:51 | 52.03909 | 1.98378 | 29110 ft | 463 kts | 77° |
| 2026-05-08 06:51 | 52.04677 | 2.03413 | 28520 ft | 456 kts | 77° |
| 2026-05-08 06:51 | 52.05435 | 2.08388 | 27934 ft | 451 kts | 77° |
| 2026-05-08 06:52 | 52.06180 | 2.13301 | 27351 ft | 446 kts | 77° |
| 2026-05-08 06:52 | 52.06917 | 2.18168 | 26763 ft | 441 kts | 77° |
| 2026-05-08 06:52 | 52.07706 | 2.22971 | 26149 ft | 440 kts | 72° |
| 2026-05-08 06:52 | 52.08835 | 2.27623 | 25619 ft | 444 kts | 67° |
| 2026-05-08 06:53 | 52.10091 | 2.32222 | 25207 ft | 445 kts | 66° |
| 2026-05-08 06:53 | 52.11346 | 2.36805 | 24905 ft | 442 kts | 66° |
| 2026-05-08 06:53 | 52.12587 | 2.41365 | 24662 ft | 439 kts | 67° |
| 2026-05-08 06:53 | 52.13810 | 2.45900 | 24391 ft | 436 kts | 67° |
| 2026-05-08 06:54 | 52.15018 | 2.50420 | 24102 ft | 435 kts | 67° |
| 2026-05-08 06:54 | 52.16214 | 2.54923 | 23803 ft | 433 kts | 67° |
| 2026-05-08 06:54 | 52.17403 | 2.59422 | 23488 ft | 432 kts | 67° |
| 2026-05-08 06:54 | 52.18586 | 2.63911 | 23168 ft | 430 kts | 67° |
| 2026-05-08 06:55 | 52.19760 | 2.68376 | 22866 ft | 427 kts | 67° |
| 2026-05-08 06:55 | 52.20926 | 2.72817 | 22569 ft | 425 kts | 67° |
| 2026-05-08 06:55 | 52.22085 | 2.77243 | 22272 ft | 423 kts | 67° |
| 2026-05-08 06:55 | 52.23238 | 2.81651 | 21924 ft | 421 kts | 67° |
| 2026-05-08 06:56 | 52.24381 | 2.86031 | 21394 ft | 418 kts | 67° |
| 2026-05-08 06:56 | 52.25513 | 2.90375 | 20865 ft | 414 kts | 67° |
| 2026-05-08 06:56 | 52.26619 | 2.94631 | 20354 ft | 411 kts | 67° |
| 2026-05-08 06:56 | 52.27729 | 2.98906 | 19820 ft | 407 kts | 67° |
| 2026-05-08 06:57 | 52.28828 | 3.03147 | 19320 ft | 404 kts | 67° |
| 2026-05-08 06:57 | 52.29917 | 3.07362 | 18812 ft | 401 kts | 67° |
| 2026-05-08 06:57 | 52.30999 | 3.11553 | 18311 ft | 399 kts | 67° |
| 2026-05-08 06:57 | 52.32072 | 3.15716 | 17750 ft | 396 kts | 67° |
| 2026-05-08 06:58 | 52.33136 | 3.19854 | 17226 ft | 393 kts | 67° |
| 2026-05-08 06:58 | 52.34190 | 3.23960 | 16727 ft | 390 kts | 67° |
| 2026-05-08 06:58 | 52.35233 | 3.28031 | 16234 ft | 386 kts | 67° |
| 2026-05-08 06:58 | 52.36265 | 3.32066 | 15745 ft | 383 kts | 68° |
| 2026-05-08 06:59 | 52.37289 | 3.36077 | 15279 ft | 381 kts | 68° |
| 2026-05-08 06:59 | 52.38288 | 3.40059 | 14795 ft | 372 kts | 71° |
| 2026-05-08 06:59 | 52.38780 | 3.44174 | 14253 ft | 369 kts | 91° |
| 2026-05-08 06:59 | 52.38408 | 3.48302 | 13662 ft | 367 kts | 107° |
| 2026-05-08 07:00 | 52.37639 | 3.52261 | 13294 ft | 360 kts | 110° |
| 2026-05-08 07:00 | 52.36806 | 3.56059 | 12914 ft | 354 kts | 111° |
| 2026-05-08 07:00 | 52.35949 | 3.59834 | 12336 ft | 354 kts | 112° |
| 2026-05-08 07:00 | 52.35087 | 3.63598 | 11961 ft | 349 kts | 111° |
| 2026-05-08 07:01 | 52.34256 | 3.67231 | 11879 ft | 334 kts | 112° |
| 2026-05-08 07:01 | 52.33458 | 3.70726 | 11786 ft | 321 kts | 112° |
| 2026-05-08 07:01 | 52.32692 | 3.74082 | 11686 ft | 309 kts | 111° |
| 2026-05-08 07:01 | 52.31948 | 3.77313 | 11526 ft | 300 kts | 112° |
| 2026-05-08 07:02 | 52.31226 | 3.80465 | 11270 ft | 292 kts | 112° |
| 2026-05-08 07:02 | 52.30527 | 3.83544 | 10752 ft | 288 kts | 112° |
| 2026-05-08 07:02 | 52.29832 | 3.86602 | 10145 ft | 287 kts | 112° |
| 2026-05-08 07:02 | 52.29133 | 3.89647 | 9526 ft | 287 kts | 112° |
| 2026-05-08 07:03 | 52.28426 | 3.92695 | 9203 ft | 285 kts | 112° |
| 2026-05-08 07:03 | 52.27726 | 3.95708 | 8927 ft | 281 kts | 112° |
| 2026-05-08 07:03 | 52.27035 | 3.98686 | 8589 ft | 280 kts | 112° |
| 2026-05-08 07:03 | 52.26292 | 4.01616 | 8255 ft | 278 kts | 116° |
| 2026-05-08 07:04 | 52.25469 | 4.04429 | 7820 ft | 272 kts | 117° |
| 2026-05-08 07:04 | 52.24634 | 4.07195 | 7227 ft | 271 kts | 117° |
| 2026-05-08 07:04 | 52.23809 | 4.09910 | 6802 ft | 270 kts | 117° |
| 2026-05-08 07:04 | 52.22972 | 4.12642 | 6500 ft | 268 kts | 117° |
| 2026-05-08 07:05 | 52.22137 | 4.15353 | 6177 ft | 267 kts | 117° |
| 2026-05-08 07:05 | 52.21308 | 4.18036 | 5875 ft | 261 kts | 117° |
| 2026-05-08 07:05 | 52.20511 | 4.20609 | 5564 ft | 247 kts | 117° |
| 2026-05-08 07:05 | 52.19737 | 4.23089 | 5360 ft | 242 kts | 116° |
| 2026-05-08 07:06 | 52.19272 | 4.25635 | 5164 ft | 232 kts | 94° |
| 2026-05-08 07:06 | 52.19215 | 4.28235 | 5024 ft | 229 kts | 92° |
| 2026-05-08 07:06 | 52.19161 | 4.30816 | 4889 ft | 225 kts | 92° |
| 2026-05-08 07:06 | 52.19104 | 4.33318 | 4723 ft | 217 kts | 92° |
| 2026-05-08 07:07 | 52.19048 | 4.35746 | 4523 ft | 211 kts | 92° |
| 2026-05-08 07:07 | 52.18994 | 4.38111 | 4335 ft | 207 kts | 92° |
| 2026-05-08 07:07 | 52.18940 | 4.40454 | 4130 ft | 207 kts | 92° |
| 2026-05-08 07:07 | 52.18885 | 4.42797 | 3927 ft | 207 kts | 92° |
| 2026-05-08 07:08 | 52.18827 | 4.45142 | 3731 ft | 207 kts | 92° |
| 2026-05-08 07:08 | 52.18986 | 4.47404 | 3540 ft | 200 kts | 66° |
| 2026-05-08 07:08 | 52.19616 | 4.49380 | 3491 ft | 197 kts | 62° |
| 2026-05-08 07:08 | 52.20306 | 4.51367 | 3214 ft | 203 kts | 59° |
| 2026-05-08 07:09 | 52.21043 | 4.53323 | 2933 ft | 202 kts | 58° |
| 2026-05-08 07:09 | 52.21776 | 4.55226 | 2660 ft | 200 kts | 58° |
| 2026-05-08 07:09 | 52.22514 | 4.57133 | 2399 ft | 198 kts | 59° |
| 2026-05-08 07:09 | 52.23253 | 4.59043 | 2116 ft | 194 kts | 59° |
| 2026-05-08 07:10 | 52.23936 | 4.60818 | 1894 ft | 176 kts | 59° |
| 2026-05-08 07:10 | 52.24555 | 4.62423 | 1627 ft | 162 kts | 60° |
| 2026-05-08 07:10 | 52.25144 | 4.63949 | 1409 ft | 153 kts | 60° |
| 2026-05-08 07:10 | 52.25682 | 4.65348 | 1225 ft | 139 kts | 60° |
| 2026-05-08 07:11 | 52.26196 | 4.66680 | 1023 ft | 139 kts | 60° |
| 2026-05-08 07:11 | 52.26702 | 4.67995 | 831 ft | 135 kts | 60° |
| 2026-05-08 07:11 | 52.27202 | 4.69298 | 654 ft | 136 kts | 60° |
| 2026-05-08 07:11 | 52.27709 | 4.70606 | 489 ft | 137 kts | 59° |
| 2026-05-08 07:12 | 52.28212 | 4.71920 | 287 ft | 135 kts | 59° |
| 2026-05-08 07:12 | 52.28710 | 4.73207 | 106 ft | 135 kts | 59° |
| 2026-05-08 07:12 | 52.29204 | 4.74480 | 6 ft | 125 kts | 60° |
| 2026-05-08 07:12 | 52.29601 | 4.75515 | 3 ft | 86 kts | 58° |
| 2026-05-08 07:13 | 52.29861 | 4.76197 | 1 ft | 63 kts | 58° |
| 2026-05-08 07:13 | 52.30075 | 4.76754 | 3 ft | 53 kts | 58° |
| 2026-05-08 07:13 | 52.30238 | 4.77178 | 1 ft | 33 kts | 56° |
| 2026-05-08 07:13 | 52.30370 | 4.77361 | 1 ft | 18 kts | 28° |
| 2026-05-08 07:14 | 52.30463 | 4.77408 | 3 ft | 10 kts | 350° |
| 2026-05-08 07:14 | 52.30525 | 4.77410 | 3 ft | 9 kts | 25° |
| 2026-05-08 07:14 | 52.30578 | 4.77515 | 3 ft | 12 kts | 55° |
| 2026-05-08 07:14 | 52.30646 | 4.77582 | 3 ft | 12 kts | 11° |
| 2026-05-08 07:15 | 52.30753 | 4.77596 | 3 ft | 16 kts | 3° |
| 2026-05-08 07:15 | 52.30863 | 4.77607 | 3 ft | 15 kts | 3° |
| 2026-05-08 07:15 | 52.30965 | 4.77617 | 3 ft | 14 kts | 3° |
| 2026-05-08 07:15 | 52.31063 | 4.77625 | 3 ft | 14 kts | 3° |
| 2026-05-08 07:16 | 52.31177 | 4.77635 | 3 ft | 20 kts | 4° |
| 2026-05-08 07:16 | 52.31333 | 4.77651 | 3 ft | 22 kts | 3° |
| 2026-05-08 07:16 | 52.31475 | 4.77606 | 3 ft | 20 kts | 325° |
| 2026-05-08 07:16 | 52.31566 | 4.77444 | 3 ft | 19 kts | 292° |
| 2026-05-08 07:17 | 52.31575 | 4.77305 | 3 ft | 19 kts | 268° |
| 2026-05-08 07:17 | 52.31568 | 4.77086 | 3 ft | 20 kts | 266° |
| 2026-05-08 07:17 | 52.31558 | 4.76806 | 3 ft | 26 kts | 266° |
| 2026-05-08 07:17 | 52.31548 | 4.76523 | 4 ft | 24 kts | 267° |
| 2026-05-08 07:18 | 52.31539 | 4.76255 | 4 ft | 23 kts | 266° |
| 2026-05-08 07:18 | 52.31531 | 4.76012 | 4 ft | 17 kts | 267° |
| 2026-05-08 07:18 | 52.31477 | 4.75922 | 4 ft | 12 kts | 185° |
| 2026-05-08 07:18 | 52.31398 | 4.75926 | 3 ft | 11 kts | 177° |
| 2026-05-08 07:19 | 52.31323 | 4.75931 | 3 ft | 10 kts | 177° |
| 2026-05-08 07:19 | 52.31253 | 4.75937 | 3 ft | 10 kts | 177° |
| 2026-05-08 07:19 | 52.31205 | 4.75949 | 4 ft | 4 kts | 143° |
| 2026-05-08 07:19 | 52.31200 | 4.75986 | 3 ft | 5 kts | 97° |
| 2026-05-08 07:20 | 52.31199 | 4.76025 | 3 ft | 2 kts | 89° |
| 2026-05-08 07:20 | 52.31200 | 4.76060 | 3 ft | 3 kts | 87° |
| 2026-05-08 07:20 | 52.31201 | 4.76092 | 3 ft | 2 kts | 88° |
| 2026-05-08 07:20 | 52.31201 | 4.76096 | 3 ft | 0 kts | 88° |